createdAt,value
2018-09-28T00:04:31.233Z,3.80
2018-09-28T00:09:34.528Z,4.77
2018-09-28T00:14:37.736Z,3.90
2018-09-28T00:19:40.995Z,3.37
2018-09-28T00:24:44.219Z,3.23
2018-09-28T00:29:47.492Z,3.97
2018-09-28T00:34:50.692Z,3.30
2018-09-28T00:39:53.904Z,3.13
2018-09-28T00:44:57.144Z,3.60
2018-09-28T00:50:00.372Z,3.57
2018-09-28T00:55:03.608Z,4.37
2018-09-28T01:00:06.880Z,3.50
2018-09-28T01:05:10.099Z,3.47
2018-09-28T01:10:13.356Z,4.30
2018-09-28T01:15:16.619Z,3.67
2018-09-28T01:20:19.904Z,4.20
2018-09-28T01:25:23.159Z,4.30
2018-09-28T01:30:26.412Z,3.97
2018-09-28T01:35:29.676Z,3.43
2018-09-28T01:40:32.935Z,3.57
2018-09-28T01:45:36.152Z,4.70
2018-09-28T01:50:39.379Z,5.70
2018-09-28T01:55:42.623Z,4.53
2018-09-28T02:00:45.852Z,4.80
2018-09-28T02:05:49.079Z,4.10
2018-09-28T02:10:52.423Z,4.40
2018-09-28T02:15:55.682Z,4.43
2018-09-28T02:20:58.872Z,4.80
2018-09-28T02:26:02.176Z,3.87
2018-09-28T02:31:05.513Z,4.73
2018-09-28T02:36:08.757Z,4.07
2018-09-28T02:41:12.016Z,4.40
2018-09-28T02:46:15.352Z,4.87
2018-09-28T02:51:18.572Z,5.17
2018-09-28T02:56:21.800Z,4.57
2018-09-28T03:01:25.092Z,4.87
2018-09-28T03:06:28.428Z,6.07
2018-09-28T03:11:31.628Z,5.73
2018-09-28T03:16:34.846Z,5.30
2018-09-28T03:21:38.094Z,5.40
2018-09-28T03:26:41.371Z,5.60
2018-09-28T03:31:44.612Z,5.07
2018-09-28T03:36:47.844Z,4.27
2018-09-28T03:41:51.095Z,5.27
2018-09-28T03:46:54.362Z,4.80
2018-09-28T03:51:57.615Z,5.20
2018-09-28T03:57:00.852Z,8.00
2018-09-28T04:02:04.096Z,5.90
2018-09-28T04:07:07.351Z,5.80
2018-09-28T04:12:10.615Z,5.13
2018-09-28T04:17:13.895Z,5.37
2018-09-28T04:22:17.135Z,5.60
2018-09-28T04:27:20.371Z,5.10
2018-09-28T04:32:23.639Z,6.10
2018-09-28T04:37:26.880Z,5.87
2018-09-28T04:42:30.132Z,6.90
2018-09-28T04:47:33.360Z,5.63
2018-09-28T04:52:36.602Z,6.63
2018-09-28T04:57:39.853Z,7.53
2018-09-28T05:02:43.087Z,6.60
2018-09-28T05:07:46.340Z,7.90
2018-09-28T05:12:49.663Z,6.80
2018-09-28T05:17:52.895Z,7.50
2018-09-28T05:22:56.129Z,6.67
2018-09-28T05:27:59.363Z,7.40
2018-09-28T05:33:02.651Z,7.30
2018-09-28T05:38:05.999Z,5.60
2018-09-28T05:43:09.535Z,5.93
2018-09-28T05:48:12.789Z,6.50
2018-09-28T05:53:16.162Z,7.10
2018-09-28T05:58:24.814Z,6.63
2018-09-28T06:03:28.056Z,6.90
2018-09-28T06:08:31.643Z,5.73
2018-09-28T06:13:34.895Z,10.20
2018-09-28T06:18:38.230Z,10.63
2018-09-28T06:23:41.431Z,6.80
2018-09-28T06:28:44.696Z,6.80
2018-09-28T06:33:47.951Z,7.67
2018-09-28T06:38:51.191Z,6.20
2018-09-28T06:43:54.460Z,6.27
2018-09-28T06:48:57.700Z,8.30
2018-09-28T06:54:00.975Z,7.67
2018-09-28T06:59:04.163Z,7.17
2018-09-28T07:04:07.640Z,6.50
2018-09-28T07:09:12.349Z,7.30
2018-09-28T07:14:15.527Z,6.97
2018-09-28T07:19:18.750Z,7.87
2018-09-28T07:24:22.019Z,6.60
2018-09-28T07:29:25.216Z,6.87
2018-09-28T07:34:28.447Z,9.13
2018-09-28T07:39:31.699Z,12.43
2018-09-28T07:44:34.983Z,8.90
2018-09-28T07:49:38.237Z,14.30
2018-09-28T07:54:41.504Z,7.83
2018-09-28T07:59:44.765Z,5.90
2018-09-28T08:04:48.005Z,7.43
2018-09-28T08:09:51.251Z,7.77
2018-09-28T08:14:54.572Z,8.27
2018-09-28T08:19:57.860Z,8.40
2018-09-28T08:25:01.102Z,7.00
2018-09-28T08:30:04.411Z,10.53
2018-09-28T08:35:08.229Z,9.60
2018-09-28T08:40:11.500Z,7.13
2018-09-28T08:45:14.735Z,6.70
2018-09-28T08:50:17.975Z,8.90
2018-09-28T08:55:21.232Z,7.70
2018-09-28T09:00:24.477Z,8.13
2018-09-28T09:05:27.699Z,9.53
2018-09-28T09:10:30.935Z,8.30
2018-09-28T09:15:34.219Z,7.37
2018-09-28T09:20:37.517Z,7.23
2018-09-28T09:25:40.783Z,7.40
2018-09-28T09:30:44.024Z,10.53
2018-09-28T09:35:47.260Z,10.53
2018-09-28T09:40:50.509Z,8.00
2018-09-28T09:45:53.719Z,8.47
2018-09-28T09:50:56.943Z,7.67
2018-09-28T09:56:00.187Z,7.53
2018-09-28T10:01:06.596Z,6.00
2018-09-28T10:06:10.991Z,8.37
2018-09-28T10:11:14.207Z,5.63
2018-09-28T10:16:17.440Z,7.60
2018-09-28T10:21:20.688Z,4.53
2018-09-28T10:26:23.928Z,6.10
2018-09-28T10:31:27.152Z,5.17
2018-09-28T10:36:30.390Z,4.10
2018-09-28T10:41:33.647Z,5.03
2018-09-28T10:46:36.886Z,5.50
2018-09-28T10:51:40.185Z,4.43
2018-09-28T10:56:43.412Z,5.60
2018-09-28T11:01:46.636Z,4.83
2018-09-28T11:06:49.859Z,3.00
2018-09-28T11:11:53.078Z,4.93
2018-09-28T11:16:56.319Z,3.03
2018-09-28T11:21:59.499Z,3.47
2018-09-28T11:27:02.811Z,4.83
2018-09-28T11:32:06.027Z,4.30
2018-09-28T11:37:10.110Z,5.00
2018-09-28T11:42:13.415Z,4.47
2018-09-28T11:47:16.643Z,3.30
2018-09-28T11:52:19.880Z,4.30
2018-09-28T11:57:23.215Z,4.10
2018-09-28T12:02:26.419Z,3.97
2018-09-28T12:07:29.671Z,2.40
2018-09-28T12:12:32.928Z,2.63
2018-09-28T12:17:36.175Z,2.90
2018-09-28T12:22:39.500Z,3.00
2018-09-28T12:27:42.796Z,2.43
2018-09-28T12:32:45.979Z,2.90
2018-09-28T12:37:49.218Z,3.57
2018-09-28T12:42:52.586Z,2.63
2018-09-28T12:47:55.700Z,2.53
2018-09-28T12:52:58.920Z,2.73
2018-09-28T12:58:02.143Z,2.37
2018-09-28T13:03:05.374Z,2.90
2018-09-28T13:08:08.689Z,3.63
2018-09-28T13:13:11.888Z,3.47
2018-09-28T13:18:15.207Z,2.50
2018-09-28T13:23:18.457Z,3.03
2018-09-28T13:28:21.675Z,3.03
2018-09-28T13:33:24.935Z,2.60
2018-09-28T13:38:28.286Z,1.97
2018-09-28T13:43:31.427Z,2.50
2018-09-28T13:48:34.821Z,2.83
2018-09-28T13:53:38.072Z,2.57
2018-09-28T13:58:41.315Z,2.03
2018-09-28T14:03:44.503Z,2.17
2018-09-28T14:08:47.945Z,1.97
2018-09-28T14:13:51.115Z,2.37
2018-09-28T14:18:54.419Z,2.37
2018-09-28T14:23:57.649Z,2.03
2018-09-28T14:29:00.917Z,2.70
2018-09-28T14:34:04.183Z,2.03
2018-09-28T14:39:08.432Z,2.43
2018-09-28T14:44:11.737Z,2.10
2018-09-28T14:49:15.703Z,3.10
2018-09-28T14:54:19.646Z,2.43
2018-09-28T14:59:23.704Z,2.97
2018-09-28T15:04:27.399Z,2.40
2018-09-28T15:09:31.851Z,2.27
2018-09-28T15:14:35.128Z,2.20
2018-09-28T15:19:38.307Z,2.37
2018-09-28T15:24:41.540Z,2.23
2018-09-28T15:29:44.787Z,1.70
2018-09-28T15:34:48.057Z,1.50
2018-09-28T15:39:51.334Z,2.00
2018-09-28T15:44:54.676Z,1.90
2018-09-28T15:49:58.089Z,2.30
2018-09-28T15:55:01.391Z,1.70
2018-09-28T16:00:04.700Z,2.17
2018-09-28T16:05:09.605Z,1.80
2018-09-28T16:10:13.128Z,1.63
2018-09-28T16:15:16.370Z,2.63
2018-09-28T16:20:19.612Z,1.73
2018-09-28T16:25:22.815Z,1.40
2018-09-28T16:30:26.060Z,3.05
2018-09-28T16:35:29.321Z,3.00
2018-09-28T16:40:32.600Z,4.10
2018-09-28T16:45:35.888Z,2.93
2018-09-28T16:50:39.133Z,4.67
2018-09-28T16:55:42.375Z,3.90
2018-09-28T17:00:45.643Z,3.33
2018-09-28T17:05:48.900Z,3.50
2018-09-28T17:10:52.178Z,2.97
2018-09-28T17:15:55.420Z,3.17
2018-09-28T17:20:58.657Z,2.37
2018-09-28T17:26:01.905Z,1.97
2018-09-28T17:31:05.175Z,2.40
2018-09-28T17:36:08.440Z,2.40
2018-09-28T17:41:11.749Z,2.00
2018-09-28T17:46:14.988Z,2.10
2018-09-28T17:51:18.224Z,1.90
2018-09-28T17:56:21.463Z,2.37
2018-09-28T18:01:24.708Z,2.53
2018-09-28T18:06:27.987Z,2.60
2018-09-28T18:11:31.264Z,2.67
2018-09-28T18:16:34.503Z,2.07
2018-09-28T18:21:37.740Z,2.23
2018-09-28T18:26:41.000Z,1.97
2018-09-28T18:31:44.268Z,2.17
2018-09-28T18:36:47.530Z,2.20
2018-09-28T18:41:50.791Z,1.87
2018-09-28T18:46:54.041Z,1.77
2018-09-28T18:51:57.353Z,2.27
2018-09-28T18:57:00.627Z,1.90
2018-09-28T19:02:03.851Z,1.97
2018-09-28T19:07:07.160Z,1.90
2018-09-28T19:12:12.231Z,2.10
2018-09-28T19:17:15.501Z,1.80
2018-09-28T19:22:18.735Z,2.50
2018-09-28T19:27:21.972Z,2.30
2018-09-28T19:32:25.240Z,1.50
2018-09-28T19:37:28.493Z,2.33
2018-09-28T19:42:31.773Z,2.20
2018-09-28T19:47:35.119Z,2.20
2018-09-28T19:52:38.343Z,2.10
2018-09-28T19:57:41.651Z,2.10
2018-09-28T20:02:45.028Z,2.50
2018-09-28T20:07:48.243Z,2.03
2018-09-28T20:12:51.479Z,1.43
2018-09-28T20:17:54.867Z,2.30
2018-09-28T20:22:58.135Z,2.03
2018-09-28T20:28:01.341Z,1.93
2018-09-28T20:33:04.572Z,2.53
2018-09-28T20:38:07.788Z,1.60
2018-09-28T20:43:11.064Z,1.90
2018-09-28T20:48:14.295Z,1.40
2018-09-28T20:53:17.540Z,1.87
2018-09-28T20:58:20.813Z,2.10
2018-09-28T21:03:24.099Z,2.17
2018-09-28T21:08:27.336Z,1.40
2018-09-28T21:13:30.617Z,1.87
2018-09-28T21:18:33.812Z,1.80
2018-09-28T21:23:37.125Z,1.80
2018-09-28T21:28:40.380Z,1.90
2018-09-28T21:33:43.632Z,1.67
2018-09-28T21:38:46.856Z,1.43
2018-09-28T21:43:50.098Z,2.30
2018-09-28T21:48:53.311Z,1.53
2018-09-28T21:53:56.533Z,2.30
2018-09-28T21:58:59.750Z,1.93
2018-09-28T22:04:03.018Z,2.27
2018-09-28T22:09:06.983Z,1.50
2018-09-28T22:14:10.338Z,1.43
2018-09-28T22:19:13.468Z,1.67
2018-09-28T22:24:16.680Z,1.47
2018-09-28T22:29:19.888Z,1.83
2018-09-28T22:34:23.187Z,1.70
2018-09-28T22:39:26.408Z,2.50
2018-09-28T22:44:29.643Z,1.83
2018-09-28T22:49:32.872Z,2.20
2018-09-28T22:54:36.124Z,2.03
2018-09-28T22:59:39.356Z,2.60
2018-09-28T23:04:42.575Z,2.10
2018-09-28T23:09:45.795Z,2.13
2018-09-28T23:14:49.048Z,1.63
2018-09-28T23:19:52.274Z,2.90
2018-09-28T23:24:55.541Z,1.87
2018-09-28T23:29:58.772Z,2.47
2018-09-28T23:35:02.092Z,2.30
2018-09-28T23:40:05.993Z,1.90
2018-09-28T23:45:09.239Z,2.27
2018-09-28T23:50:12.451Z,1.73
2018-09-28T23:55:15.668Z,2.03
